createdAt,value
2023-03-06T00:00:22.127Z,1.10
2023-03-06T00:02:49.297Z,1.10
2023-03-06T00:05:17.032Z,1.10
2023-03-06T00:07:44.272Z,1.10
2023-03-06T00:10:15.745Z,1.10
2023-03-06T00:12:45.300Z,1.00
2023-03-06T00:15:12.578Z,1.00
2023-03-06T00:17:39.419Z,1.00
2023-03-06T00:20:06.993Z,1.10
2023-03-06T00:22:33.953Z,1.00
2023-03-06T00:25:00.966Z,1.00
2023-03-06T00:27:28.031Z,1.00
2023-03-06T00:29:58.899Z,1.00
2023-03-06T00:32:26.551Z,0.90
2023-03-06T00:34:53.966Z,0.90
2023-03-06T00:37:21.785Z,0.90
2023-03-06T00:39:49.869Z,0.90
2023-03-06T00:42:17.467Z,1.00
2023-03-06T00:44:44.751Z,0.90
2023-03-06T00:47:12.165Z,0.90
2023-03-06T00:49:39.260Z,0.90
2023-03-06T00:52:06.275Z,0.80
2023-03-06T00:54:33.243Z,0.80
2023-03-06T00:57:00.120Z,0.80
2023-03-06T00:59:27.993Z,0.80
2023-03-06T01:01:55.431Z,0.80
2023-03-06T01:04:22.621Z,0.80
2023-03-06T01:06:49.951Z,0.80
2023-03-06T01:09:16.964Z,0.80
2023-03-06T01:11:44.009Z,0.80
2023-03-06T01:14:10.951Z,0.80
2023-03-06T01:16:37.986Z,0.70
2023-03-06T01:19:04.959Z,0.70
2023-03-06T01:21:31.824Z,0.70
2023-03-06T01:23:58.809Z,0.70
2023-03-06T01:26:26.011Z,0.70
2023-03-06T01:28:53.037Z,0.60
2023-03-06T01:31:20.210Z,0.60
2023-03-06T01:33:47.121Z,0.60
2023-03-06T01:36:14.064Z,0.70
2023-03-06T01:38:40.905Z,0.70
2023-03-06T01:41:08.246Z,0.70
2023-03-06T01:43:36.420Z,0.60
2023-03-06T01:46:22.041Z,0.60
2023-03-06T01:48:50.288Z,0.60
2023-03-06T01:51:17.316Z,0.60
2023-03-06T01:53:45.320Z,0.50
2023-03-06T01:56:13.107Z,0.50
2023-03-06T01:58:40.485Z,0.50
2023-03-06T02:01:07.343Z,0.50
2023-03-06T02:03:34.403Z,0.60
2023-03-06T02:06:01.416Z,0.50
2023-03-06T02:08:28.838Z,0.50
2023-03-06T02:10:55.806Z,0.50
2023-03-06T02:13:22.989Z,0.50
2023-03-06T02:15:50.187Z,0.50
2023-03-06T02:18:17.115Z,0.50
2023-03-06T02:20:46.364Z,0.50
2023-03-06T02:23:13.276Z,0.50
2023-03-06T02:25:42.092Z,0.50
2023-03-06T02:28:13.334Z,0.40
2023-03-06T02:30:43.202Z,0.40
2023-03-06T02:33:21.760Z,0.30
2023-03-06T02:36:00.720Z,0.30
2023-03-06T02:38:34.491Z,0.30
2023-03-06T02:41:03.203Z,0.20
2023-03-06T02:43:33.164Z,0.30
2023-03-06T02:46:00.211Z,0.30
2023-03-06T02:48:27.637Z,0.30
2023-03-06T02:50:54.600Z,0.30
2023-03-06T02:53:21.457Z,0.30
2023-03-06T02:55:52.088Z,0.30
2023-03-06T02:58:21.934Z,0.30
2023-03-06T03:00:49.565Z,0.40
2023-03-06T03:03:17.024Z,0.40
2023-03-06T03:05:44.017Z,0.40
2023-03-06T03:08:11.109Z,0.30
2023-03-06T03:10:38.011Z,0.20
2023-03-06T03:13:04.889Z,0.20
2023-03-06T03:15:34.980Z,0.20
2023-03-06T03:18:01.867Z,0.20
2023-03-06T03:20:28.781Z,0.20
2023-03-06T03:22:55.874Z,0.20
2023-03-06T03:25:23.608Z,0.20
2023-03-06T03:27:50.617Z,0.20
2023-03-06T03:30:17.737Z,0.20
2023-03-06T03:32:44.716Z,0.20
2023-03-06T03:35:11.772Z,0.20
2023-03-06T03:37:38.707Z,0.20
2023-03-06T03:40:07.255Z,0.10
2023-03-06T03:42:34.186Z,0.10
2023-03-06T03:45:01.061Z,0.10
2023-03-06T03:47:27.992Z,0.10
2023-03-06T03:49:54.942Z,0.20
2023-03-06T03:52:21.940Z,0.10
2023-03-06T03:54:48.896Z,0.10
2023-03-06T03:57:15.881Z,0.10
2023-03-06T03:59:42.909Z,0.10
2023-03-06T04:02:09.921Z,0.10
2023-03-06T04:04:37.007Z,0.10
2023-03-06T04:07:04.612Z,0.10
2023-03-06T04:09:31.589Z,0.10
2023-03-06T04:11:58.580Z,0.10
2023-03-06T04:14:25.466Z,0.00
2023-03-06T04:16:52.336Z,0.00
2023-03-06T04:19:19.324Z,-0.10
2023-03-06T04:21:46.194Z,0.00
2023-03-06T04:24:13.234Z,0.00
2023-03-06T04:26:40.211Z,0.00
2023-03-06T04:29:07.181Z,0.00
2023-03-06T04:31:34.210Z,0.00
2023-03-06T04:34:01.235Z,0.00
2023-03-06T04:36:30.132Z,0.00
2023-03-06T04:38:57.179Z,0.00
2023-03-06T04:41:24.197Z,0.00
2023-03-06T04:43:51.746Z,0.10
2023-03-06T04:46:18.694Z,0.20
2023-03-06T04:48:45.697Z,0.20
2023-03-06T04:51:13.408Z,0.30
2023-03-06T04:53:40.505Z,0.40
2023-03-06T04:56:07.614Z,0.40
2023-03-06T04:58:34.536Z,0.40
2023-03-06T05:01:01.457Z,0.40
2023-03-06T05:03:28.317Z,0.40
2023-03-06T05:05:55.359Z,0.40
2023-03-06T05:08:23.917Z,0.40
2023-03-06T05:10:56.211Z,0.30
2023-03-06T05:13:23.422Z,0.30
2023-03-06T05:15:50.255Z,0.40
2023-03-06T05:18:17.249Z,0.40
2023-03-06T05:20:44.380Z,0.40
2023-03-06T05:23:11.662Z,0.50
2023-03-06T05:25:42.000Z,0.50
2023-03-06T05:28:08.976Z,0.40
2023-03-06T05:30:36.048Z,0.40
2023-03-06T05:33:03.003Z,0.40
2023-03-06T05:35:30.057Z,0.40
2023-03-06T05:37:57.031Z,0.40
2023-03-06T05:40:23.912Z,0.40
2023-03-06T05:42:50.933Z,0.50
2023-03-06T05:45:17.824Z,0.50
2023-03-06T05:47:44.863Z,0.60
2023-03-06T05:50:12.230Z,0.70
2023-03-06T05:52:39.945Z,0.80
2023-03-06T05:55:07.660Z,0.90
2023-03-06T05:57:34.537Z,1.00
2023-03-06T06:00:01.396Z,1.00
2023-03-06T06:02:28.367Z,1.10
2023-03-06T06:04:55.339Z,1.20
2023-03-06T06:07:22.333Z,1.20
2023-03-06T06:09:53.013Z,1.40
2023-03-06T06:12:19.997Z,1.50
2023-03-06T06:14:46.979Z,1.60
2023-03-06T06:17:13.887Z,1.60
2023-03-06T06:19:40.772Z,1.70
2023-03-06T06:22:07.847Z,1.80
2023-03-06T06:24:34.806Z,1.80
2023-03-06T06:27:03.849Z,1.90
2023-03-06T06:29:31.560Z,1.90
2023-03-06T06:31:58.842Z,2.00
2023-03-06T06:34:26.230Z,1.90
2023-03-06T06:36:54.549Z,2.00
2023-03-06T06:39:22.464Z,2.00
2023-03-06T06:42:02.714Z,2.00
2023-03-06T06:44:38.634Z,2.10
2023-03-06T06:47:24.132Z,2.00
2023-03-06T06:49:53.031Z,2.10
2023-03-06T06:52:20.341Z,2.10
2023-03-06T06:54:47.482Z,2.10
2023-03-06T06:57:15.335Z,1.90
2023-03-06T06:59:42.319Z,1.90
2023-03-06T07:02:13.185Z,2.10
2023-03-06T07:04:49.349Z,2.20
2023-03-06T07:07:27.719Z,2.30
2023-03-06T07:09:57.706Z,2.50
2023-03-06T07:12:24.817Z,2.50
2023-03-06T07:14:51.898Z,2.80
2023-03-06T07:17:18.827Z,3.20
2023-03-06T07:19:45.823Z,3.30
2023-03-06T07:22:13.002Z,3.50
2023-03-06T07:24:40.039Z,3.60
2023-03-06T07:27:06.941Z,3.90
2023-03-06T07:29:34.689Z,3.90
2023-03-06T07:32:02.100Z,4.00
2023-03-06T07:34:29.502Z,4.00
2023-03-06T07:36:58.081Z,4.10
2023-03-06T07:39:25.647Z,4.30
2023-03-06T07:41:53.662Z,4.40
2023-03-06T07:44:20.579Z,4.40
2023-03-06T07:46:47.735Z,4.60
2023-03-06T07:49:14.678Z,4.50
2023-03-06T07:51:41.673Z,4.50
2023-03-06T07:54:08.742Z,4.70
2023-03-06T07:56:35.693Z,4.80
2023-03-06T07:59:02.664Z,5.00
2023-03-06T08:01:29.964Z,5.00
2023-03-06T08:03:57.077Z,5.30
2023-03-06T08:06:25.731Z,5.50
2023-03-06T08:08:53.376Z,5.60
2023-03-06T08:11:21.204Z,5.70
2023-03-06T08:13:49.174Z,5.70
2023-03-06T08:16:17.645Z,5.70
2023-03-06T08:18:46.378Z,5.90
2023-03-06T08:21:17.940Z,6.00
2023-03-06T08:23:44.918Z,6.10
2023-03-06T08:26:13.030Z,6.40
2023-03-06T08:28:40.243Z,6.30
2023-03-06T08:31:08.518Z,6.30
2023-03-06T08:33:35.916Z,6.30
2023-03-06T08:36:02.975Z,6.50
2023-03-06T08:38:30.924Z,6.70
2023-03-06T08:40:58.198Z,6.90
2023-03-06T08:43:25.484Z,7.10
2023-03-06T08:45:56.907Z,7.30
2023-03-06T08:48:25.561Z,7.50
2023-03-06T08:50:52.566Z,7.30
2023-03-06T08:53:28.026Z,7.10
2023-03-06T08:56:04.226Z,7.20
2023-03-06T08:58:31.479Z,7.20
2023-03-06T09:00:59.344Z,7.20
2023-03-06T09:03:26.346Z,7.50
2023-03-06T09:05:53.261Z,7.70
2023-03-06T09:08:21.114Z,7.80
2023-03-06T09:10:48.483Z,8.10
2023-03-06T09:13:15.777Z,8.30
2023-03-06T09:15:42.705Z,8.40
2023-03-06T09:18:10.283Z,8.50
2023-03-06T09:20:37.273Z,8.70
2023-03-06T09:23:04.384Z,8.70
2023-03-06T09:25:32.597Z,8.90
2023-03-06T09:28:10.889Z,9.10
2023-03-06T09:30:40.349Z,9.20
2023-03-06T09:33:08.871Z,9.40
2023-03-06T09:35:35.879Z,9.60
2023-03-06T09:38:03.013Z,9.80
2023-03-06T09:40:45.803Z,9.80
2023-03-06T09:43:21.575Z,9.80
2023-03-06T09:45:49.132Z,9.90
2023-03-06T09:48:16.928Z,9.90
2023-03-06T09:50:51.875Z,10.20
2023-03-06T09:53:25.826Z,10.30
2023-03-06T09:56:01.217Z,10.50
2023-03-06T09:58:30.231Z,10.60
2023-03-06T10:01:05.257Z,11.00
2023-03-06T10:03:51.316Z,11.10
2023-03-06T10:06:26.816Z,11.30
2023-03-06T10:08:56.917Z,11.70
2023-03-06T10:11:43.752Z,11.90
2023-03-06T10:14:14.307Z,12.30
2023-03-06T10:16:41.391Z,12.50
2023-03-06T10:19:15.743Z,12.70
2023-03-06T10:21:44.969Z,13.00
2023-03-06T10:24:32.307Z,13.20
2023-03-06T10:27:11.380Z,13.40
2023-03-06T10:29:47.549Z,13.50
2023-03-06T10:32:46.144Z,13.70
2023-03-06T10:35:22.062Z,13.70
2023-03-06T10:37:50.282Z,13.60
2023-03-06T10:40:20.360Z,13.60
2023-03-06T10:42:47.597Z,13.60
2023-03-06T10:45:16.178Z,13.60
2023-03-06T10:47:45.853Z,13.70
2023-03-06T10:50:33.008Z,14.00
2023-03-06T10:53:08.118Z,14.30
2023-03-06T10:55:36.227Z,14.70
2023-03-06T10:58:37.604Z,14.80
2023-03-06T11:01:20.248Z,15.00
2023-03-06T11:03:47.899Z,15.20
2023-03-06T11:06:16.448Z,15.20
2023-03-06T11:08:44.254Z,15.30
2023-03-06T11:11:18.495Z,15.40
2023-03-06T11:13:56.943Z,15.50
2023-03-06T11:16:32.412Z,15.60
2023-03-06T11:19:05.315Z,15.70
2023-03-06T11:21:36.154Z,15.60
2023-03-06T11:24:09.357Z,15.50
2023-03-06T11:26:39.155Z,15.60
2023-03-06T11:29:10.856Z,15.60
2023-03-06T11:31:48.255Z,15.60
2023-03-06T11:34:35.391Z,15.70
2023-03-06T11:37:09.653Z,15.60
2023-03-06T11:39:55.363Z,15.30
2023-03-06T11:42:26.933Z,15.00
2023-03-06T11:44:54.098Z,14.80
2023-03-06T11:47:26.457Z,14.70
2023-03-06T11:50:05.023Z,14.60
2023-03-06T11:52:54.992Z,14.40
2023-03-06T11:55:32.746Z,14.20
2023-03-06T11:58:10.202Z,14.20
2023-03-06T12:00:45.460Z,14.30
2023-03-06T12:03:44.702Z,14.40
2023-03-06T12:06:17.989Z,14.40
2023-03-06T12:08:48.176Z,14.60
2023-03-06T12:11:24.512Z,14.80
2023-03-06T12:14:05.440Z,15.00
2023-03-06T12:16:38.902Z,15.20
2023-03-06T12:19:07.312Z,15.20
2023-03-06T12:21:34.291Z,15.20
2023-03-06T12:24:12.488Z,15.00
2023-03-06T12:26:54.717Z,14.90
2023-03-06T12:29:23.347Z,14.80
2023-03-06T12:32:08.296Z,14.60
2023-03-06T12:34:38.409Z,14.60
2023-03-06T12:37:24.118Z,14.50
2023-03-06T12:40:10.136Z,14.40
2023-03-06T12:42:40.790Z,14.40
2023-03-06T12:45:39.898Z,14.30
2023-03-06T12:48:15.066Z,14.40
2023-03-06T12:50:44.758Z,14.30
2023-03-06T12:53:22.429Z,14.30
2023-03-06T12:55:50.918Z,14.20
2023-03-06T12:58:28.693Z,14.10
2023-03-06T13:01:04.183Z,14.00
2023-03-06T13:03:31.457Z,13.90
2023-03-06T13:05:58.272Z,13.90
2023-03-06T13:08:34.284Z,13.80
2023-03-06T13:11:04.289Z,13.90
2023-03-06T13:13:41.685Z,13.90
2023-03-06T13:16:27.544Z,14.10
2023-03-06T13:18:56.429Z,14.30
2023-03-06T13:21:44.424Z,14.30
2023-03-06T13:24:17.355Z,14.30
2023-03-06T13:26:49.063Z,14.30
2023-03-06T13:29:35.250Z,14.20
2023-03-06T13:32:02.331Z,14.10
2023-03-06T13:34:32.114Z,13.90
2023-03-06T13:37:25.366Z,13.90
2023-03-06T13:39:55.528Z,13.90
2023-03-06T13:42:28.577Z,14.00
2023-03-06T13:44:56.511Z,14.20
2023-03-06T13:47:33.467Z,14.20
2023-03-06T13:50:01.052Z,14.20
2023-03-06T13:52:49.800Z,14.10
2023-03-06T13:55:23.523Z,14.10
2023-03-06T13:58:15.014Z,14.10
2023-03-06T14:00:46.541Z,14.10
2023-03-06T14:03:26.909Z,14.20
2023-03-06T14:05:54.139Z,14.20
2023-03-06T14:08:23.081Z,14.20
2023-03-06T14:10:59.573Z,14.10
2023-03-06T14:13:35.123Z,14.10
2023-03-06T14:16:11.262Z,14.10
2023-03-06T14:18:44.498Z,14.10
2023-03-06T14:21:13.947Z,14.00
2023-03-06T14:23:47.640Z,13.90
2023-03-06T14:26:20.351Z,13.90
2023-03-06T14:28:53.590Z,13.80
2023-03-06T14:31:24.724Z,13.70
2023-03-06T14:33:55.374Z,13.70
2023-03-06T14:36:23.810Z,13.70
2023-03-06T14:38:59.021Z,13.60
2023-03-06T14:41:27.789Z,13.60
2023-03-06T14:44:08.235Z,13.70
2023-03-06T14:46:35.161Z,13.80
2023-03-06T14:49:06.666Z,13.80
2023-03-06T14:51:36.389Z,13.80
2023-03-06T14:54:04.184Z,13.70
2023-03-06T14:56:34.205Z,13.70
2023-03-06T14:59:03.405Z,13.80
2023-03-06T15:01:36.029Z,13.70
2023-03-06T15:04:09.190Z,13.70
2023-03-06T15:06:39.754Z,13.70
2023-03-06T15:09:09.563Z,13.70
2023-03-06T15:12:30.479Z,13.60
2023-03-06T15:14:59.092Z,13.60
2023-03-06T15:17:29.232Z,13.50
2023-03-06T15:19:57.775Z,13.40
2023-03-06T15:22:26.323Z,13.30
2023-03-06T15:25:09.200Z,13.30
2023-03-06T15:27:36.250Z,13.20
2023-03-06T15:30:26.561Z,13.20
2023-03-06T15:33:09.010Z,13.20
2023-03-06T15:35:37.861Z,13.10
2023-03-06T15:38:22.836Z,13.10
2023-03-06T15:40:56.700Z,13.00
2023-03-06T15:43:23.681Z,12.90
2023-03-06T15:45:51.491Z,12.80
2023-03-06T15:48:18.820Z,12.80
2023-03-06T15:50:45.911Z,12.80
2023-03-06T15:53:12.831Z,12.70
2023-03-06T15:55:40.212Z,12.60
2023-03-06T15:58:07.330Z,12.60
2023-03-06T16:00:35.421Z,12.60
2023-03-06T16:03:02.474Z,12.50
2023-03-06T16:05:29.938Z,12.50
2023-03-06T16:07:58.328Z,12.40
2023-03-06T16:10:26.833Z,12.40
2023-03-06T16:12:56.359Z,12.30
2023-03-06T16:15:25.447Z,12.30
2023-03-06T16:17:52.438Z,12.30
2023-03-06T16:20:23.726Z,12.20
2023-03-06T16:22:50.911Z,12.20
2023-03-06T16:25:17.992Z,12.10
2023-03-06T16:27:48.233Z,12.10
2023-03-06T16:30:18.945Z,12.00
2023-03-06T16:32:46.714Z,12.00
2023-03-06T16:35:14.903Z,11.90
2023-03-06T16:37:42.122Z,11.90
2023-03-06T16:40:18.705Z,11.90
2023-03-06T16:42:46.039Z,11.80
2023-03-06T16:45:13.203Z,11.80
2023-03-06T16:47:40.600Z,11.70
2023-03-06T16:50:17.004Z,11.60
2023-03-06T16:52:44.070Z,11.60
2023-03-06T16:55:11.420Z,11.60
2023-03-06T16:57:40.238Z,11.50
2023-03-06T17:00:08.346Z,11.50
2023-03-06T17:02:35.369Z,11.50
2023-03-06T17:05:02.399Z,11.40
2023-03-06T17:07:29.737Z,11.30
2023-03-06T17:09:56.687Z,11.30
2023-03-06T17:12:23.613Z,11.30
2023-03-06T17:14:50.605Z,11.10
2023-03-06T17:17:17.608Z,11.10
2023-03-06T17:19:50.849Z,11.10
2023-03-06T17:22:18.129Z,11.00
2023-03-06T17:24:45.365Z,11.00
2023-03-06T17:27:12.404Z,11.00
2023-03-06T17:29:39.884Z,10.90
2023-03-06T17:32:07.206Z,10.90
2023-03-06T17:34:34.213Z,10.90
2023-03-06T17:37:01.711Z,10.80
2023-03-06T17:39:32.669Z,10.80
2023-03-06T17:41:59.628Z,10.70
2023-03-06T17:44:26.468Z,10.70
2023-03-06T17:46:53.489Z,10.60
2023-03-06T17:49:23.306Z,10.60
2023-03-06T17:51:50.329Z,10.50
2023-03-06T17:54:17.369Z,10.50
2023-03-06T17:56:44.528Z,10.50
2023-03-06T17:59:11.821Z,10.40
2023-03-06T18:01:38.809Z,10.30
2023-03-06T18:04:08.775Z,10.20
2023-03-06T18:06:35.754Z,10.10
2023-03-06T18:09:03.236Z,10.00
2023-03-06T18:11:30.742Z,10.00
2023-03-06T18:14:05.378Z,9.90
2023-03-06T18:16:36.260Z,9.90
2023-03-06T18:19:03.638Z,9.90
2023-03-06T18:21:31.030Z,9.80
2023-03-06T18:23:58.455Z,9.80
2023-03-06T18:26:46.501Z,9.80
2023-03-06T18:29:14.762Z,9.70
2023-03-06T18:31:47.413Z,9.70
2023-03-06T18:34:15.042Z,9.70
2023-03-06T18:36:43.786Z,9.70
2023-03-06T18:39:12.185Z,9.70
2023-03-06T18:41:39.245Z,9.70
2023-03-06T18:44:06.946Z,9.70
2023-03-06T18:46:35.251Z,9.70
2023-03-06T18:49:02.423Z,9.60
2023-03-06T18:51:29.777Z,9.60
2023-03-06T18:53:58.277Z,9.70
2023-03-06T18:56:28.377Z,9.70
2023-03-06T18:58:55.541Z,9.70
2023-03-06T19:01:22.978Z,9.60
2023-03-06T19:03:50.467Z,9.60
2023-03-06T19:06:17.537Z,9.60
2023-03-06T19:08:44.862Z,9.50
2023-03-06T19:11:16.108Z,9.50
2023-03-06T19:13:43.269Z,9.40
2023-03-06T19:16:17.137Z,9.40
2023-03-06T19:18:46.905Z,9.40
2023-03-06T19:21:18.681Z,9.30
2023-03-06T19:23:45.764Z,9.30
2023-03-06T19:26:13.103Z,9.30
2023-03-06T19:28:43.643Z,9.30
2023-03-06T19:31:15.834Z,9.20
2023-03-06T19:33:43.110Z,9.20
2023-03-06T19:36:11.461Z,9.20
2023-03-06T19:38:38.394Z,9.20
2023-03-06T19:41:05.306Z,9.20
2023-03-06T19:43:32.242Z,9.20
2023-03-06T19:46:00.816Z,9.20
2023-03-06T19:48:28.089Z,9.20
2023-03-06T19:50:55.072Z,9.10
2023-03-06T19:53:23.469Z,9.10
2023-03-06T19:55:50.373Z,9.10
2023-03-06T19:58:17.334Z,9.10
2023-03-06T20:00:44.308Z,9.10
2023-03-06T20:03:11.285Z,9.00
2023-03-06T20:05:45.222Z,9.00
2023-03-06T20:08:12.337Z,9.00
2023-03-06T20:10:39.932Z,8.90
2023-03-06T20:13:06.842Z,8.90
2023-03-06T20:15:35.245Z,8.90
2023-03-06T20:18:02.402Z,8.90
2023-03-06T20:20:29.808Z,8.80
2023-03-06T20:22:56.824Z,8.80
2023-03-06T20:25:23.743Z,8.80
2023-03-06T20:27:50.656Z,8.80
2023-03-06T20:30:17.817Z,8.80
2023-03-06T20:32:44.721Z,8.70
2023-03-06T20:35:11.761Z,8.70
2023-03-06T20:37:38.966Z,8.70
2023-03-06T20:40:06.260Z,8.70
2023-03-06T20:42:34.007Z,8.70
2023-03-06T20:45:01.406Z,8.70
2023-03-06T20:47:28.457Z,8.70
2023-03-06T20:49:55.590Z,8.60
2023-03-06T20:52:22.875Z,8.60
2023-03-06T20:54:50.156Z,8.50
2023-03-06T20:57:17.689Z,8.50
2023-03-06T20:59:45.594Z,8.50
2023-03-06T21:02:15.029Z,8.50
2023-03-06T21:04:42.343Z,8.60
2023-03-06T21:07:09.632Z,8.60
2023-03-06T21:09:38.050Z,8.50
2023-03-06T21:12:05.366Z,8.50
2023-03-06T21:14:32.919Z,8.50
2023-03-06T21:17:01.371Z,8.50
2023-03-06T21:19:28.889Z,8.60
2023-03-06T21:21:55.863Z,8.60
2023-03-06T21:24:23.431Z,8.60
2023-03-06T21:26:51.450Z,8.50
2023-03-06T21:29:18.744Z,8.50
2023-03-06T21:31:46.123Z,8.60
2023-03-06T21:34:13.201Z,8.60
2023-03-06T21:36:40.357Z,8.60
2023-03-06T21:39:07.348Z,8.60
2023-03-06T21:41:34.440Z,8.60
2023-03-06T21:44:02.868Z,8.60
2023-03-06T21:46:29.796Z,8.60
2023-03-06T21:48:57.149Z,8.60
2023-03-06T21:51:45.633Z,8.60
2023-03-06T21:54:13.148Z,8.60
2023-03-06T21:56:40.092Z,8.50
2023-03-06T21:59:06.958Z,8.50
2023-03-06T22:01:33.862Z,8.50
2023-03-06T22:04:00.842Z,8.50
2023-03-06T22:06:28.276Z,8.50
2023-03-06T22:08:55.888Z,8.40
2023-03-06T22:11:23.651Z,8.40
2023-03-06T22:13:50.577Z,8.30
2023-03-06T22:16:17.669Z,8.30
2023-03-06T22:18:45.671Z,8.30
2023-03-06T22:21:14.081Z,8.20
2023-03-06T22:23:41.077Z,8.10
2023-03-06T22:26:09.385Z,8.10
2023-03-06T22:28:36.346Z,8.10
2023-03-06T22:31:16.982Z,8.10
2023-03-06T22:33:44.172Z,8.00
2023-03-06T22:36:12.415Z,8.00
2023-03-06T22:38:40.627Z,8.00
2023-03-06T22:41:08.186Z,7.90
2023-03-06T22:43:35.358Z,7.80
2023-03-06T22:46:06.992Z,7.80
2023-03-06T22:48:34.322Z,7.70
2023-03-06T22:51:02.248Z,7.60
2023-03-06T22:53:29.201Z,7.50
2023-03-06T22:55:59.598Z,7.40
2023-03-06T22:58:27.485Z,7.40
2023-03-06T23:00:54.414Z,7.30
2023-03-06T23:03:21.363Z,7.30
2023-03-06T23:05:48.223Z,7.20
2023-03-06T23:08:15.113Z,7.20
2023-03-06T23:10:42.017Z,7.10
2023-03-06T23:13:08.998Z,7.00
2023-03-06T23:15:36.470Z,6.90
2023-03-06T23:18:04.052Z,6.90
2023-03-06T23:20:31.237Z,6.90
2023-03-06T23:22:58.064Z,6.90
2023-03-06T23:25:25.140Z,6.90
2023-03-06T23:27:52.021Z,6.90
2023-03-06T23:30:19.045Z,7.00
2023-03-06T23:32:46.163Z,7.00
2023-03-06T23:35:13.881Z,7.10
2023-03-06T23:37:40.807Z,7.20
2023-03-06T23:40:09.430Z,7.30
2023-03-06T23:42:36.520Z,7.30
2023-03-06T23:45:03.588Z,7.30
2023-03-06T23:47:33.849Z,7.30
2023-03-06T23:50:01.110Z,7.30
2023-03-06T23:52:28.035Z,7.40
2023-03-06T23:54:55.010Z,7.40
2023-03-06T23:57:21.919Z,7.40
2023-03-06T23:59:48.966Z,7.40
